Time;durP1;ratioP1;P1;durP2;ratioP2;P2;SDS_P1;SDS_P2;PMS_P1;PMS_P2;Temp;Humidity;BMP_temperature;BMP_pressure;BME280_temperature;BME280_humidity;BME280_pressure;Samples;Min_cycle;Max_cycle;Signal;HPM_P1;HPM_P2
2021/12/04 00:01:28;;;;;;;33.17;24.67;;;4.70;99.90;;;;;;4969144;28;20465;-65
2021/12/04 00:03:57;;;;;;;32.87;23.90;;;4.80;99.90;;;;;;4968345;28;20488;-65
2021/12/04 00:06:28;;;;;;;35.50;25.37;;;4.80;99.90;;;;;;4967933;28;20559;-64
2021/12/04 00:09:02;;;;;;;33.07;23.57;;;4.80;99.90;;;;;;4968875;28;20508;-64
2021/12/04 00:11:30;;;;;;;31.37;23.17;;;4.70;99.90;;;;;;4968374;28;20569;-64
2021/12/04 00:14:00;;;;;;;30.33;24.07;;;4.70;99.90;;;;;;4969327;28;20575;-65
2021/12/04 00:16:28;;;;;;;34.57;23.70;;;4.70;99.90;;;;;;4969290;28;20555;-65
2021/12/04 00:18:56;;;;;;;29.80;22.70;;;4.70;99.90;;;;;;4969886;28;20478;-65
2021/12/04 00:21:24;;;;;;;31.90;22.83;;;4.70;99.90;;;;;;4969700;28;20531;-64
2021/12/04 00:23:53;;;;;;;29.67;23.87;;;4.70;99.90;;;;;;4970799;28;20552;-65
2021/12/04 00:26:21;;;;;;;28.90;22.57;;;4.70;99.90;;;;;;4969827;28;20497;-65
2021/12/04 00:28:49;;;;;;;31.33;23.70;;;4.70;99.90;;;;;;4969854;28;20498;-65
2021/12/04 00:31:18;;;;;;;30.33;22.20;;;4.70;99.90;;;;;;4969368;28;20484;-65
2021/12/04 00:33:47;;;;;;;29.43;22.20;;;4.70;99.90;;;;;;4969272;28;20504;-65
2021/12/04 00:36:26;;;;;;;28.83;22.73;;;4.80;99.90;;;;;;4968667;28;20485;-65
2021/12/04 00:49:59;;;;;;;28.43;22.67;;;4.70;99.90;;;;;;4968999;28;21007;-65
2021/12/04 00:52:27;;;;;;;29.77;22.63;;;4.70;99.90;;;;;;4969171;28;20484;-65
2021/12/04 00:55:01;;;;;;;29.20;22.27;;;4.60;99.90;;;;;;4969965;28;20929;-65
2021/12/04 00:57:29;;;;;;;28.30;22.10;;;4.70;99.90;;;;;;4969131;28;20480;-65
2021/12/04 00:59:57;;;;;;;28.17;21.63;;;4.80;99.90;;;;;;4969286;28;20477;-64
2021/12/04 01:02:26;;;;;;;25.70;20.47;;;4.80;99.90;;;;;;4969324;28;20485;-65
2021/12/04 01:04:55;;;;;;;28.37;20.90;;;4.70;99.90;;;;;;4970016;28;20478;-65
2021/12/04 01:07:24;;;;;;;28.60;22.50;;;4.70;99.90;;;;;;4968886;28;20500;-65
2021/12/04 01:09:53;;;;;;;31.47;22.30;;;4.80;99.90;;;;;;4968746;28;20480;-65
2021/12/04 01:12:21;;;;;;;31.10;22.70;;;4.70;99.90;;;;;;4969417;28;20501;-65
2021/12/04 01:14:49;;;;;;;28.50;22.00;;;4.70;99.90;;;;;;4969843;28;20488;-64
2021/12/04 01:17:18;;;;;;;33.83;23.17;;;4.70;99.90;;;;;;4969772;28;20610;-64
2021/12/04 01:19:47;;;;;;;32.87;22.90;;;4.70;99.90;;;;;;4968076;28;20568;-65
2021/12/04 01:22:16;;;;;;;29.47;22.07;;;4.80;99.90;;;;;;4969068;28;20509;-66
2021/12/04 01:24:44;;;;;;;31.67;23.57;;;4.80;99.90;;;;;;4969139;28;20473;-64
2021/12/04 01:27:14;;;;;;;31.70;23.07;;;4.70;99.90;;;;;;4968794;28;21060;-65
2021/12/04 01:29:42;;;;;;;35.93;24.43;;;4.80;99.90;;;;;;4968113;28;20481;-64
2021/12/04 01:32:10;;;;;;;33.50;24.67;;;4.80;99.90;;;;;;4968414;28;20517;-65
2021/12/04 01:34:38;;;;;;;34.10;25.23;;;4.70;99.90;;;;;;4963703;28;20480;-64
2021/12/04 01:37:08;;;;;;;33.40;22.87;;;4.80;99.90;;;;;;4969233;28;20597;-64
2021/12/04 01:39:36;;;;;;;35.03;25.30;;;4.70;99.90;;;;;;4968517;28;20508;-65
2021/12/04 01:42:05;;;;;;;36.80;25.40;;;4.70;99.90;;;;;;4968421;28;20492;-64
2021/12/04 01:44:33;;;;;;;36.50;25.57;;;4.80;99.90;;;;;;4967392;28;20567;-65
2021/12/04 01:47:11;;;;;;;39.13;26.73;;;4.70;99.90;;;;;;4968433;28;20484;-65
2021/12/04 01:49:39;;;;;;;39.87;26.13;;;4.80;99.90;;;;;;4967515;28;20505;-65
2021/12/04 01:52:09;;;;;;;34.17;25.87;;;4.70;99.90;;;;;;4968254;28;20848;-65
2021/12/04 01:54:40;;;;;;;39.50;27.80;;;4.80;99.90;;;;;;4962074;28;20565;-65
2021/12/04 01:57:08;;;;;;;37.50;26.80;;;4.80;99.90;;;;;;4967446;28;20485;-65
2021/12/04 01:59:36;;;;;;;37.77;27.37;;;4.80;99.90;;;;;;4967369;28;20481;-65
2021/12/04 02:02:05;;;;;;;36.20;25.30;;;4.90;99.90;;;;;;4950584;28;21043;-66
2021/12/04 02:04:33;;;;;;;36.27;26.50;;;4.90;99.90;;;;;;4968200;28;20995;-65
2021/12/04 02:07:03;;;;;;;37.37;26.77;;;4.90;99.90;;;;;;4971758;28;20505;-64
2021/12/04 02:09:34;;;;;;;35.20;26.17;;;4.80;99.90;;;;;;4967415;28;20548;-64
2021/12/04 02:12:05;;;;;;;33.73;25.10;;;4.90;99.90;;;;;;4967986;28;21180;-65
2021/12/04 02:14:34;;;;;;;34.17;25.67;;;4.90;99.90;;;;;;4968098;28;20821;-65
2021/12/04 02:17:03;;;;;;;35.77;27.10;;;4.80;99.90;;;;;;4968605;28;20474;-64
2021/12/04 02:19:31;;;;;;;36.40;25.57;;;4.80;99.90;;;;;;4967370;28;20487;-65
2021/12/04 02:22:01;;;;;;;32.83;23.90;;;4.80;99.90;;;;;;4967435;28;20476;-65
2021/12/04 02:24:29;;;;;;;33.13;23.93;;;4.80;99.90;;;;;;4967514;28;20512;-65
2021/12/04 02:26:58;;;;;;;32.90;23.37;;;4.80;99.90;;;;;;4971731;28;20888;-64
2021/12/04 02:29:26;;;;;;;34.20;23.93;;;4.90;99.90;;;;;;4967392;28;20559;-65
2021/12/04 02:31:56;;;;;;;30.50;22.70;;;4.90;99.90;;;;;;4964632;28;20556;-65
2021/12/04 02:34:27;;;;;;;32.27;22.93;;;4.90;99.90;;;;;;4968184;28;20573;-65
2021/12/04 02:36:56;;;;;;;29.70;22.63;;;4.90;99.90;;;;;;4967700;28;21354;-65
2021/12/04 02:39:30;;;;;;;32.63;23.73;;;4.90;99.90;;;;;;4967571;28;20553;-65
2021/12/04 02:41:59;;;;;;;32.67;23.30;;;4.80;99.90;;;;;;4967118;28;20481;-65
2021/12/04 02:44:33;;;;;;;32.60;23.63;;;4.80;99.90;;;;;;4967727;28;20485;-65
2021/12/04 02:47:02;;;;;;;35.47;24.17;;;4.90;99.90;;;;;;4967688;28;20884;-65
2021/12/04 02:49:30;;;;;;;34.47;24.60;;;4.90;99.90;;;;;;4966579;28;20488;-65
2021/12/04 02:52:02;;;;;;;35.03;23.10;;;4.90;99.90;;;;;;4967661;28;20520;-65
2021/12/04 02:54:32;;;;;;;31.73;23.20;;;4.90;99.90;;;;;;4967569;28;20501;-66
2021/12/04 02:57:02;;;;;;;32.57;23.97;;;4.80;99.90;;;;;;4967854;28;20508;-64
2021/12/04 02:59:30;;;;;;;34.43;23.40;;;4.90;99.90;;;;;;4966595;28;20465;-65
2021/12/04 03:01:58;;;;;;;36.30;24.73;;;4.90;99.90;;;;;;4966110;28;20544;-64
2021/12/04 03:04:28;;;;;;;37.40;24.57;;;4.90;99.90;;;;;;4967072;28;20474;-65
2021/12/04 03:06:56;;;;;;;36.57;24.33;;;4.90;99.90;;;;;;4967625;28;20487;-65
2021/12/04 03:09:24;;;;;;;43.97;27.13;;;4.80;99.90;;;;;;4964889;28;20509;-65
2021/12/04 03:11:54;;;;;;;38.13;25.60;;;4.80;99.90;;;;;;4967601;28;20523;-65
2021/12/04 03:14:22;;;;;;;37.13;25.27;;;4.80;99.90;;;;;;4967412;28;20564;-65
2021/12/04 03:16:50;;;;;;;37.63;24.27;;;4.80;99.90;;;;;;4967445;28;20501;-64
2021/12/04 03:19:18;;;;;;;38.97;26.13;;;4.90;99.90;;;;;;4967026;28;20982;-65
2021/12/04 03:21:47;;;;;;;41.67;27.43;;;4.90;99.90;;;;;;4966862;28;20760;-65
2021/12/04 03:24:17;;;;;;;36.63;23.97;;;4.80;99.90;;;;;;4967006;28;20482;-65
2021/12/04 03:26:47;;;;;;;40.17;25.67;;;4.80;99.90;;;;;;4966814;28;20512;-65
2021/12/04 03:29:19;;;;;;;40.50;27.33;;;4.90;99.90;;;;;;4966566;28;20680;-65
2021/12/04 03:32:09;;;;;;;39.37;24.57;;;4.80;99.90;;;;;;4966752;28;20490;-65
2021/12/04 03:40:23;;;;;;;45.07;26.43;;;4.80;99.90;;;;;;4966375;28;20489;-65
2021/12/04 03:42:53;;;;;;;42.47;27.53;;;4.80;99.90;;;;;;4961517;28;20846;-64
2021/12/04 03:45:22;;;;;;;40.93;25.83;;;4.80;99.90;;;;;;4965048;28;20480;-65
2021/12/04 03:47:52;;;;;;;40.63;25.80;;;4.90;99.90;;;;;;4966684;28;21052;-65
2021/12/04 03:50:20;;;;;;;42.83;27.70;;;5.00;99.90;;;;;;4966010;28;20489;-65
2021/12/04 03:52:48;;;;;;;38.50;24.97;;;5.10;99.90;;;;;;4967153;28;20573;-65
2021/12/04 03:55:17;;;;;;;38.27;25.83;;;5.00;99.90;;;;;;4967051;28;20536;-65
2021/12/04 03:57:45;;;;;;;39.93;25.77;;;5.00;99.90;;;;;;4967100;28;20481;-65
2021/12/04 04:00:14;;;;;;;37.63;26.80;;;5.00;99.90;;;;;;4965503;28;20477;-64
2021/12/04 04:02:44;;;;;;;42.50;24.73;;;4.90;99.90;;;;;;4966624;28;20480;-65
2021/12/04 04:05:12;;;;;;;41.93;26.07;;;5.00;99.90;;;;;;4967449;28;20489;-65
2021/12/04 04:07:41;;;;;;;41.93;25.40;;;5.20;99.90;;;;;;4966516;28;20480;-65
2021/12/04 04:10:09;;;;;;;40.80;26.77;;;5.10;99.90;;;;;;4965627;28;21031;-64
2021/12/04 04:12:38;;;;;;;43.53;26.80;;;5.00;99.90;;;;;;4961712;28;20569;-65
2021/12/04 04:15:06;;;;;;;39.60;27.40;;;4.90;99.90;;;;;;4966843;28;20476;-65
2021/12/04 04:17:42;;;;;;;38.70;25.33;;;4.80;99.90;;;;;;4967232;28;20838;-65
2021/12/04 04:20:14;;;;;;;43.07;27.17;;;4.90;99.90;;;;;;4966580;28;20485;-64
2021/12/04 04:22:44;;;;;;;43.83;25.80;;;4.80;99.90;;;;;;4970239;28;20651;-65
2021/12/04 04:25:14;;;;;;;42.07;27.70;;;4.80;99.90;;;;;;4969616;28;20477;-64
2021/12/04 04:27:43;;;;;;;40.60;27.43;;;4.80;99.90;;;;;;4969582;28;20489;-65
2021/12/04 04:30:14;;;;;;;45.03;28.63;;;4.80;99.90;;;;;;4969225;28;20517;-65
2021/12/04 04:32:43;;;;;;;37.37;25.10;;;4.90;99.90;;;;;;4960592;28;20536;-65
2021/12/04 04:35:15;;;;;;;41.77;27.10;;;5.00;99.90;;;;;;4970085;28;20496;-64
2021/12/04 04:37:50;;;;;;;41.70;28.07;;;5.00;99.90;;;;;;4969988;28;20506;-65
2021/12/04 05:00:31;;;;;;;40.07;27.23;;;4.80;99.90;;;;;;4951759;28;20480;-65
2021/12/04 05:11:43;;;;;;;39.40;26.80;;;4.80;99.90;;;;;;4962319;28;20473;-65
2021/12/04 05:14:18;;;;;;;39.47;26.10;;;4.70;99.90;;;;;;4969392;28;20560;-65
2021/12/04 05:16:50;;;;;;;34.77;23.83;;;4.70;99.90;;;;;;4969479;28;20480;-65
2021/12/04 05:19:29;;;;;;;41.57;28.60;;;4.80;99.90;;;;;;4967888;28;20573;-65
2021/12/04 05:21:57;;;;;;;43.07;26.33;;;4.80;99.90;;;;;;4968050;28;20548;-65
2021/12/04 05:24:27;;;;;;;44.33;29.27;;;5.00;99.90;;;;;;4969228;28;20482;-65
2021/12/04 05:26:55;;;;;;;47.70;31.63;;;4.80;99.90;;;;;;4972598;28;20489;-65
2021/12/04 05:29:23;;;;;;;47.03;31.03;;;4.80;99.90;;;;;;4968190;28;20476;-65
2021/12/04 05:31:52;;;;;;;42.70;28.00;;;4.80;99.90;;;;;;4968000;28;20488;-65
2021/12/04 05:34:20;;;;;;;48.23;31.43;;;4.90;99.90;;;;;;4968881;28;20572;-65
2021/12/04 05:36:48;;;;;;;49.47;28.63;;;4.90;99.90;;;;;;4968772;28;20473;-65
2021/12/04 05:39:16;;;;;;;50.20;32.33;;;5.00;99.90;;;;;;4968007;28;20473;-65
2021/12/04 05:41:46;;;;;;;50.80;31.17;;;4.90;99.90;;;;;;4968395;28;21034;-66
2021/12/04 05:44:16;;;;;;;52.10;31.77;;;5.00;99.90;;;;;;4968120;28;20474;-65
2021/12/04 05:46:46;;;;;;;55.30;33.77;;;4.90;99.90;;;;;;4971888;28;20572;-65
2021/12/04 05:49:18;;;;;;;47.80;32.43;;;4.90;99.90;;;;;;4967335;28;20492;-65
2021/12/04 05:52:01;;;;;;;48.17;31.47;;;4.90;99.90;;;;;;4967877;28;20553;-65
2021/12/04 05:54:44;;;;;;;49.13;30.57;;;4.80;99.90;;;;;;4968197;28;20501;-64
2021/12/04 05:57:14;;;;;;;49.23;31.00;;;4.80;99.90;;;;;;4968371;28;20543;-65
2021/12/04 05:59:42;;;;;;;51.23;32.20;;;4.80;99.90;;;;;;4967344;28;20485;-65
2021/12/04 06:02:10;;;;;;;51.23;32.60;;;4.80;99.90;;;;;;4968106;28;20897;-65
2021/12/04 06:04:38;;;;;;;51.43;32.10;;;4.80;99.90;;;;;;4961539;28;20486;-65
2021/12/04 06:07:07;;;;;;;52.07;32.20;;;4.80;99.90;;;;;;4968047;28;21063;-64
2021/12/04 06:09:35;;;;;;;51.50;32.03;;;4.70;99.90;;;;;;4966696;28;20489;-65
2021/12/04 06:12:07;;;;;;;52.17;31.13;;;4.70;99.90;;;;;;4967296;28;20554;-64
2021/12/04 06:14:37;;;;;;;48.97;31.40;;;4.90;99.90;;;;;;4968148;28;20491;-64
2021/12/04 06:17:05;;;;;;;53.43;31.77;;;4.80;99.90;;;;;;4967922;28;21011;-64
2021/12/04 06:22:40;;;;;;;46.03;29.73;;;4.70;99.90;;;;;;4942559;28;20557;-65
2021/12/04 06:25:10;;;;;;;46.03;29.63;;;4.70;99.90;;;;;;4963465;28;20988;-64
2021/12/04 06:27:39;;;;;;;51.70;31.40;;;4.60;99.90;;;;;;4965587;28;20520;-65
2021/12/04 06:30:13;;;;;;;55.20;32.50;;;4.60;99.90;;;;;;4965938;28;20883;-64
2021/12/04 06:32:41;;;;;;;53.23;33.57;;;4.60;99.90;;;;;;4966762;28;20936;-64
2021/12/04 06:35:11;;;;;;;60.10;33.80;;;4.60;99.90;;;;;;4967372;28;20482;-65
2021/12/04 06:37:39;;;;;;;60.23;34.20;;;4.60;99.90;;;;;;4967961;28;20908;-64
2021/12/04 06:40:11;;;;;;;60.67;35.53;;;4.60;99.90;;;;;;4966496;28;20850;-65
2021/12/04 06:42:39;;;;;;;60.93;35.20;;;4.60;99.90;;;;;;4959419;28;20835;-65
2021/12/04 06:45:11;;;;;;;60.30;35.50;;;4.60;99.90;;;;;;4965782;28;20500;-65
2021/12/04 06:47:46;;;;;;;55.27;30.93;;;4.50;99.90;;;;;;4965517;28;20508;-66
2021/12/04 06:50:20;;;;;;;63.37;35.13;;;4.60;99.90;;;;;;4965191;28;20514;-64
2021/12/04 06:52:49;;;;;;;61.23;35.70;;;4.60;99.90;;;;;;4965925;28;20559;-65
2021/12/04 06:55:17;;;;;;;62.20;35.63;;;4.70;99.90;;;;;;4965703;28;20477;-64
2021/12/04 06:57:46;;;;;;;64.53;35.87;;;4.60;99.90;;;;;;4965378;28;20516;-65
2021/12/04 07:00:16;;;;;;;64.00;36.40;;;4.70;99.90;;;;;;4964691;28;20611;-65
2021/12/04 07:02:44;;;;;;;61.40;37.03;;;4.80;99.90;;;;;;4965271;28;20474;-64
2021/12/04 07:05:12;;;;;;;62.80;34.50;;;4.70;99.90;;;;;;4965352;28;20486;-64
2021/12/04 07:07:40;;;;;;;63.57;35.63;;;4.80;99.90;;;;;;4964850;28;20480;-65
2021/12/04 07:10:09;;;;;;;54.87;32.17;;;4.80;99.90;;;;;;4964777;28;20486;-65
2021/12/04 07:12:37;;;;;;;65.27;33.60;;;4.80;99.90;;;;;;4965362;28;20484;-65
2021/12/04 07:15:07;;;;;;;67.77;37.67;;;4.90;99.90;;;;;;4965650;28;20496;-64
2021/12/04 07:17:36;;;;;;;65.10;35.43;;;4.80;99.90;;;;;;4965415;28;20520;-65
2021/12/04 07:20:07;;;;;;;52.93;30.07;;;4.70;99.90;;;;;;4963639;28;20906;-64
2021/12/04 07:22:36;;;;;;;67.13;37.00;;;4.80;99.90;;;;;;4965436;28;20553;-65
2021/12/04 07:25:05;;;;;;;68.83;36.77;;;4.80;99.90;;;;;;4966561;28;21084;-66
2021/12/04 07:27:35;;;;;;;67.17;38.57;;;4.80;99.90;;;;;;4949861;28;20500;-64
2021/12/04 07:30:04;;;;;;;72.50;37.97;;;4.70;99.90;;;;;;4949086;28;20520;-64
2021/12/04 07:32:32;;;;;;;68.10;38.80;;;4.70;99.90;;;;;;4948737;28;20485;-65
2021/12/04 07:35:02;;;;;;;62.07;35.37;;;4.60;99.90;;;;;;4950696;28;20574;-65
2021/12/04 07:37:30;;;;;;;65.50;36.43;;;4.60;99.90;;;;;;4950288;28;20598;-65
2021/12/04 07:39:58;;;;;;;62.10;36.43;;;4.60;99.90;;;;;;4949943;28;20565;-64
2021/12/04 07:42:26;;;;;;;62.97;36.37;;;4.60;99.90;;;;;;4948425;28;20502;-64
2021/12/04 07:44:54;;;;;;;62.90;35.03;;;4.50;99.90;;;;;;4949437;28;21059;-64
2021/12/04 07:47:22;;;;;;;58.33;36.20;;;4.50;99.90;;;;;;4949629;28;21001;-65
2021/12/04 07:49:50;;;;;;;60.30;34.60;;;4.60;99.90;;;;;;4948600;28;21014;-65
2021/12/04 07:52:20;;;;;;;66.53;35.67;;;4.60;99.90;;;;;;4947896;28;20491;-63
2021/12/04 07:54:50;;;;;;;61.97;34.77;;;4.60;99.90;;;;;;4948944;28;20516;-65
2021/12/04 07:57:18;;;;;;;61.47;34.97;;;4.60;99.90;;;;;;4953155;28;21568;-65
2021/12/04 07:59:46;;;;;;;55.97;33.40;;;4.60;99.90;;;;;;4952664;28;20634;-65
2021/12/04 08:02:16;;;;;;;55.13;33.37;;;4.60;99.90;;;;;;4952809;28;21229;-64
2021/12/04 08:04:44;;;;;;;53.90;32.60;;;4.60;99.90;;;;;;4950889;28;20493;-64
2021/12/04 08:07:12;;;;;;;57.23;32.20;;;4.60;99.90;;;;;;4951715;28;20485;-64
2021/12/04 08:09:42;;;;;;;57.07;33.00;;;4.60;99.90;;;;;;4951325;28;20969;-65
2021/12/04 08:12:10;;;;;;;56.63;31.47;;;4.60;99.90;;;;;;4951605;28;20486;-66
2021/12/04 08:14:39;;;;;;;56.93;33.30;;;4.60;99.90;;;;;;4948893;28;21380;-65
2021/12/04 08:17:07;;;;;;;53.73;33.67;;;4.60;99.90;;;;;;4951269;28;21252;-64
2021/12/04 08:19:35;;;;;;;53.90;32.70;;;4.70;99.90;;;;;;4951301;28;20492;-64
2021/12/04 08:22:04;;;;;;;58.93;32.43;;;4.60;99.90;;;;;;4950784;28;20484;-64
2021/12/04 08:24:32;;;;;;;55.67;32.10;;;4.60;99.90;;;;;;4948158;28;20491;-64
2021/12/04 08:27:02;;;;;;;57.87;31.50;;;4.60;99.90;;;;;;4951922;28;20469;-65
2021/12/04 08:29:31;;;;;;;51.67;28.80;;;4.70;99.90;;;;;;4966733;28;20508;-64
2021/12/04 08:31:59;;;;;;;55.13;30.50;;;4.70;99.90;;;;;;4967564;28;20484;-65
2021/12/04 08:34:27;;;;;;;49.67;29.77;;;4.70;99.90;;;;;;4968674;28;20465;-65
2021/12/04 08:36:55;;;;;;;54.17;31.47;;;4.70;99.90;;;;;;4967724;28;20482;-65
2021/12/04 08:39:23;;;;;;;48.13;29.70;;;4.70;99.90;;;;;;4968291;28;20489;-66
2021/12/04 08:41:52;;;;;;;51.10;29.27;;;4.70;99.90;;;;;;4951569;28;20480;-66
2021/12/04 08:44:21;;;;;;;48.00;27.27;;;4.70;99.90;;;;;;4969136;28;20324;-65
2021/12/04 08:46:50;;;;;;;49.40;29.33;;;4.80;99.90;;;;;;4970494;28;20560;-65
2021/12/04 08:49:18;;;;;;;48.30;29.07;;;4.80;99.90;;;;;;4968836;28;20484;-65
2021/12/04 08:51:47;;;;;;;50.70;30.20;;;5.00;99.90;;;;;;4968642;28;20494;-65
2021/12/04 08:54:15;;;;;;;50.87;29.13;;;4.90;99.90;;;;;;4969531;28;20497;-66
2021/12/04 08:56:43;;;;;;;49.17;29.50;;;4.80;99.90;;;;;;4969228;28;21049;-66
2021/12/04 08:59:11;;;;;;;52.10;29.77;;;4.80;99.90;;;;;;4967920;28;20482;-66
2021/12/04 09:01:43;;;;;;;49.93;28.50;;;4.70;99.90;;;;;;4968292;28;20485;-65
2021/12/04 09:04:14;;;;;;;49.23;29.53;;;4.90;99.90;;;;;;4969149;28;20485;-66
2021/12/04 09:06:43;;;;;;;48.40;28.30;;;4.80;99.90;;;;;;4965790;28;20481;-65
2021/12/04 09:09:13;;;;;;;47.97;28.30;;;4.70;99.90;;;;;;4968734;28;20489;-65
2021/12/04 09:11:44;;;;;;;50.17;27.83;;;4.70;99.90;;;;;;4969106;28;20485;-65
2021/12/04 09:14:16;;;;;;;48.70;28.37;;;4.70;99.90;;;;;;4968832;28;20702;-65
2021/12/04 09:16:46;;;;;;;48.90;26.60;;;4.70;99.90;;;;;;4966349;28;20481;-65
2021/12/04 09:19:14;;;;;;;49.80;27.50;;;4.80;99.90;;;;;;4949658;28;20492;-65
2021/12/04 09:21:42;;;;;;;49.07;27.60;;;4.80;99.90;;;;;;4951873;28;20536;-65
2021/12/04 09:24:15;;;;;;;48.40;27.60;;;4.80;99.90;;;;;;4952457;28;20492;-64
2021/12/04 09:26:55;;;;;;;49.23;26.63;;;4.80;99.90;;;;;;4953304;28;20490;-65
2021/12/04 09:32:29;;;;;;;48.80;26.47;;;4.80;99.90;;;;;;4948234;28;21193;-64
2021/12/04 09:35:22;;;;;;;48.30;26.43;;;4.80;99.90;;;;;;4952079;28;20500;-64
2021/12/04 10:03:04;;;;;;;42.70;25.37;;;4.90;99.90;;;;;;4947340;28;20497;-65
2021/12/04 10:05:56;;;;;;;42.80;25.80;;;4.90;99.90;;;;;;4951708;28;20592;-65
2021/12/04 10:19:48;;;;;;;37.30;22.73;;;5.00;99.90;;;;;;4948765;28;20490;-65
2021/12/04 10:22:34;;;;;;;29.30;20.70;;;5.00;99.90;;;;;;4946611;28;20480;-65
2021/12/04 10:32:00;;;;;;;32.03;21.37;;;4.90;99.90;;;;;;4950259;28;20493;-65
2021/12/04 10:33:47;;;;;;;26.83;19.13;;;5.00;99.90;;;;;;4947351;28;20546;-65
2021/12/04 10:36:27;;;;;;;25.90;18.67;;;4.90;99.90;;;;;;4952039;28;21700;-65
2021/12/04 10:38:57;;;;;;;22.57;18.20;;;4.90;99.90;;;;;;4950832;28;20599;-66
2021/12/04 10:41:31;;;;;;;25.53;19.20;;;4.90;99.90;;;;;;4950381;28;20543;-64
2021/12/04 10:44:10;;;;;;;22.70;17.57;;;4.90;99.90;;;;;;4947287;28;21055;-65
2021/12/04 10:46:39;;;;;;;24.30;18.53;;;4.90;99.90;;;;;;4951153;28;20489;-65
2021/12/04 10:49:13;;;;;;;26.73;18.53;;;4.90;99.90;;;;;;4949877;28;20489;-64
2021/12/04 10:51:52;;;;;;;22.83;17.73;;;4.90;99.90;;;;;;4950184;28;20503;-65
2021/12/04 10:54:25;;;;;;;22.53;17.60;;;4.90;99.90;;;;;;4949048;28;20556;-64
2021/12/04 10:57:14;;;;;;;23.07;17.53;;;4.90;99.90;;;;;;4950759;28;20520;-65
2021/12/04 10:59:51;;;;;;;22.07;16.77;;;5.00;99.90;;;;;;4948952;28;21055;-65
2021/12/04 11:02:24;;;;;;;19.63;15.57;;;4.90;99.90;;;;;;4946970;28;21124;-65
2021/12/04 11:04:56;;;;;;;22.63;17.60;;;5.00;99.90;;;;;;4950386;28;20485;-65
2021/12/04 11:38:39;;;;;;;21.10;17.10;;;5.10;99.90;;;;;;4953382;28;20485;-66
2021/12/04 11:41:20;;;;;;;23.87;18.07;;;5.10;99.90;;;;;;4953491;28;21050;-65
2021/12/04 11:43:55;;;;;;;22.13;17.53;;;5.20;99.90;;;;;;4950800;28;20574;-65
2021/12/04 11:46:30;;;;;;;26.53;19.27;;;5.30;99.90;;;;;;4954209;28;20499;-65
2021/12/04 11:49:09;;;;;;;24.13;18.10;;;5.30;99.90;;;;;;4952496;28;20492;-66
2021/12/04 11:51:46;;;;;;;21.17;17.13;;;5.30;99.90;;;;;;4953547;28;20492;-65
2021/12/04 11:54:16;;;;;;;21.80;16.83;;;5.30;99.90;;;;;;4950516;28;20571;-65
2021/12/04 11:56:44;;;;;;;20.93;16.83;;;5.30;99.90;;;;;;4954055;28;20520;-65
2021/12/04 11:59:14;;;;;;;19.03;15.37;;;5.20;99.90;;;;;;4951956;28;20488;-65
2021/12/04 12:01:42;;;;;;;19.87;16.57;;;5.20;99.90;;;;;;4952845;28;20480;-65
2021/12/04 12:04:12;;;;;;;22.13;17.47;;;5.20;99.90;;;;;;4949909;28;20486;-64
2021/12/04 12:06:43;;;;;;;19.43;16.70;;;5.20;99.90;;;;;;4953481;28;21130;-65
2021/12/04 12:09:14;;;;;;;20.73;18.07;;;5.20;99.90;;;;;;4951679;28;20270;-65
2021/12/04 12:11:55;;;;;;;20.03;17.13;;;5.20;99.90;;;;;;4952647;28;20496;-64
2021/12/04 12:14:37;;;;;;;20.50;17.07;;;5.20;99.90;;;;;;4951382;28;20241;-64
2021/12/04 12:17:07;;;;;;;20.43;17.20;;;5.20;99.90;;;;;;4953971;28;20561;-64
2021/12/04 12:19:39;;;;;;;23.20;19.60;;;5.20;99.90;;;;;;4951263;28;20613;-64
2021/12/04 12:22:16;;;;;;;23.17;18.60;;;5.20;99.90;;;;;;4948920;28;20576;-65
2021/12/04 12:27:51;;;;;;;21.83;19.17;;;5.10;99.90;;;;;;4953813;28;20505;-65
2021/12/04 12:33:25;;;;;;;21.27;17.13;;;5.10;99.90;;;;;;4951369;28;20485;-65
2021/12/04 12:36:05;;;;;;;21.60;17.53;;;5.20;99.90;;;;;;4967547;28;20556;-65
2021/12/04 12:38:43;;;;;;;21.83;18.13;;;5.20;99.90;;;;;;4969069;28;20757;-65
2021/12/04 12:41:22;;;;;;;20.63;17.50;;;5.20;99.90;;;;;;4966161;28;20519;-65
2021/12/04 12:44:00;;;;;;;20.60;17.43;;;5.20;99.90;;;;;;4963454;28;20285;-65
2021/12/04 12:46:43;;;;;;;20.73;17.50;;;5.20;99.90;;;;;;4969522;28;21083;-65
2021/12/04 12:49:21;;;;;;;22.67;17.37;;;5.20;99.90;;;;;;4968482;28;21003;-65
2021/12/04 12:51:58;;;;;;;21.90;18.17;;;5.20;99.90;;;;;;4969241;28;20505;-65
2021/12/04 12:54:29;;;;;;;19.63;17.17;;;5.20;99.90;;;;;;4969656;28;20508;-65
2021/12/04 12:57:01;;;;;;;19.50;16.83;;;5.20;99.90;;;;;;4969238;28;20559;-65
2021/12/04 12:59:42;;;;;;;19.83;17.20;;;5.20;99.90;;;;;;4968803;28;21073;-65
2021/12/04 13:13:32;;;;;;;24.53;19.80;;;5.20;99.90;;;;;;4965746;28;20564;-65
2021/12/04 13:16:06;;;;;;;23.90;18.67;;;5.20;99.90;;;;;;4967827;28;21008;-65
2021/12/04 13:18:37;;;;;;;23.00;18.70;;;5.20;99.90;;;;;;4967667;28;20485;-65
2021/12/04 13:21:09;;;;;;;20.97;17.23;;;5.20;99.90;;;;;;4950396;28;20497;-64
2021/12/04 13:23:38;;;;;;;19.80;16.33;;;5.20;99.90;;;;;;4950416;28;20489;-64
2021/12/04 13:26:08;;;;;;;20.40;16.50;;;5.20;99.90;;;;;;4952306;28;20496;-64
2021/12/04 13:28:39;;;;;;;18.90;16.43;;;5.10;99.90;;;;;;4949295;28;20482;-64
2021/12/04 13:31:09;;;;;;;22.27;17.00;;;5.10;99.90;;;;;;4950851;28;20972;-64
2021/12/04 13:33:44;;;;;;;18.00;16.00;;;5.10;99.90;;;;;;4951671;28;20929;-65
2021/12/04 13:36:14;;;;;;;20.70;17.33;;;5.20;99.90;;;;;;4952822;28;21225;-64
2021/12/04 13:38:43;;;;;;;19.50;16.83;;;5.20;99.90;;;;;;4947999;28;20499;-65
2021/12/04 13:41:11;;;;;;;20.53;16.90;;;5.20;99.90;;;;;;4950932;28;20488;-65
2021/12/04 13:43:40;;;;;;;19.43;17.17;;;5.20;99.90;;;;;;4950650;28;20488;-65
2021/12/04 13:46:09;;;;;;;21.50;17.47;;;5.20;99.90;;;;;;4951514;28;20678;-65
2021/12/04 13:48:38;;;;;;;20.43;17.43;;;5.20;99.90;;;;;;4947188;28;20581;-65
2021/12/04 13:51:07;;;;;;;18.73;16.17;;;5.20;99.90;;;;;;4950892;28;20490;-65
2021/12/04 13:53:39;;;;;;;19.60;16.80;;;5.20;99.90;;;;;;4950735;28;20467;-64
2021/12/04 13:56:09;;;;;;;22.30;18.13;;;5.10;99.90;;;;;;4951237;28;21160;-64
2021/12/04 13:58:45;;;;;;;21.77;18.47;;;5.10;99.90;;;;;;4947625;28;20885;-65
2021/12/04 14:01:14;;;;;;;20.50;17.20;;;5.20;99.90;;;;;;4951139;28;20530;-65
2021/12/04 14:03:46;;;;;;;20.50;17.13;;;5.10;99.90;;;;;;4951303;28;21032;-65
2021/12/04 14:06:17;;;;;;;23.20;18.47;;;5.20;99.90;;;;;;4951091;28;20493;-65
2021/12/04 14:08:57;;;;;;;27.10;19.83;;;5.20;99.90;;;;;;4946898;28;21636;-64
2021/12/04 14:11:29;;;;;;;21.77;18.87;;;5.20;99.90;;;;;;4950849;28;20965;-64
2021/12/04 14:13:58;;;;;;;22.50;18.83;;;5.20;99.90;;;;;;4956451;28;20559;-64
2021/12/04 14:16:27;;;;;;;23.93;19.17;;;5.20;99.90;;;;;;4965894;28;20493;-65
2021/12/04 14:18:56;;;;;;;21.47;17.87;;;5.20;99.90;;;;;;4965101;28;20876;-64
2021/12/04 14:21:25;;;;;;;21.97;17.70;;;5.10;99.90;;;;;;4964176;28;20484;-65
2021/12/04 14:23:53;;;;;;;25.60;18.80;;;5.10;99.90;;;;;;4963817;28;20993;-64
2021/12/04 14:26:21;;;;;;;21.50;17.30;;;5.10;99.90;;;;;;4968465;28;20495;-66
2021/12/04 14:29:04;;;;;;;23.60;16.10;;;5.00;99.90;;;;;;4962537;28;20818;-65
2021/12/04 14:31:32;;;;;;;26.40;18.47;;;5.10;99.90;;;;;;4963797;28;21174;-65
2021/12/04 14:34:02;;;;;;;24.00;17.90;;;5.00;99.90;;;;;;4962229;28;20480;-65
2021/12/04 14:36:30;;;;;;;20.50;16.93;;;5.10;99.90;;;;;;4965814;28;20477;-65
2021/12/04 14:39:02;;;;;;;18.93;16.77;;;5.00;99.90;;;;;;4967250;28;20537;-65
2021/12/04 14:41:31;;;;;;;20.30;16.93;;;5.00;99.90;;;;;;4966667;28;20512;-66
2021/12/04 14:43:59;;;;;;;17.83;15.00;;;5.00;99.90;;;;;;4967468;28;20854;-64
2021/12/04 14:46:29;;;;;;;19.37;16.67;;;5.00;99.90;;;;;;4967209;28;20552;-65
2021/12/04 14:49:02;;;;;;;17.77;15.67;;;5.00;99.90;;;;;;4967715;28;20899;-65
2021/12/04 14:51:31;;;;;;;16.57;14.83;;;5.00;99.90;;;;;;4959300;28;20484;-65
2021/12/04 14:54:00;;;;;;;15.37;13.70;;;5.00;99.90;;;;;;4962731;28;20703;-65
2021/12/04 14:56:31;;;;;;;14.90;13.30;;;4.90;99.90;;;;;;4962014;28;21005;-65
2021/12/04 14:59:00;;;;;;;15.30;13.70;;;4.90;99.90;;;;;;4961627;28;20901;-64
2021/12/04 15:01:32;;;;;;;16.07;14.33;;;4.90;99.90;;;;;;4961466;28;20480;-65
2021/12/04 15:04:03;;;;;;;14.37;12.87;;;4.90;99.90;;;;;;4963226;28;20478;-65
2021/12/04 15:06:36;;;;;;;13.87;12.37;;;4.90;99.90;;;;;;4962670;28;20571;-65
2021/12/04 15:09:10;;;;;;;14.50;12.90;;;4.90;99.90;;;;;;4962670;28;20490;-64
2021/12/04 15:11:40;;;;;;;14.37;12.63;;;4.80;99.90;;;;;;4962491;28;20488;-65
2021/12/04 15:14:12;;;;;;;13.43;11.40;;;4.90;99.90;;;;;;4963210;28;20528;-65
2021/12/04 15:16:47;;;;;;;14.00;12.47;;;4.90;99.90;;;;;;4963804;28;20579;-65